Time;durP1;ratioP1;P1;durP2;ratioP2;P2;SDS_P1;SDS_P2;PMS_P1;PMS_P2;Temp;Humidity;BMP_temperature;BMP_pressure;BME280_temperature;BME280_humidity;BME280_pressure;Samples;Min_cycle;Max_cycle;Signal;HPM_P1;HPM_P2
2023/05/15 00:01:15;;;;;;;4.40;4.10;;;20.30;59.90;;;;;;5093264;28;20261;-62
2023/05/15 00:03:41;;;;;;;4.63;4.22;;;20.20;59.90;;;;;;5092789;28;20514;-62
2023/05/15 00:06:06;;;;;;;4.75;4.35;;;20.20;59.90;;;;;;5092808;28;20270;-62
2023/05/15 00:08:32;;;;;;;4.75;4.38;;;20.20;59.90;;;;;;5093518;28;20177;-62
2023/05/15 00:10:57;;;;;;;3.85;3.65;;;20.20;59.90;;;;;;5092750;28;20303;-62
2023/05/15 00:13:23;;;;;;;4.50;4.10;;;20.20;59.90;;;;;;5093138;28;20631;-61
2023/05/15 00:15:48;;;;;;;4.45;4.10;;;20.20;59.90;;;;;;5093152;28;20614;-61
2023/05/15 00:18:14;;;;;;;4.93;4.53;;;20.20;59.90;;;;;;5092220;28;20319;-62
2023/05/15 00:20:40;;;;;;;4.70;4.30;;;20.20;59.90;;;;;;5093124;28;20221;-61
2023/05/15 00:23:05;;;;;;;3.90;3.70;;;20.20;59.90;;;;;;5093148;28;20172;-61
2023/05/15 00:25:31;;;;;;;4.50;4.20;;;20.20;59.90;;;;;;5092586;28;20624;-62
2023/05/15 00:27:56;;;;;;;4.50;4.10;;;20.20;60.70;;;;;;5093156;28;20303;-62
2023/05/15 00:30:22;;;;;;;4.80;4.30;;;20.20;59.90;;;;;;5092686;28;20322;-63
2023/05/15 00:32:47;;;;;;;4.63;4.32;;;20.20;59.90;;;;;;5092410;28;20256;-62
2023/05/15 00:35:13;;;;;;;4.93;4.53;;;20.20;59.90;;;;;;5092462;28;20293;-62
2023/05/15 00:37:39;;;;;;;4.32;4.03;;;20.20;59.90;;;;;;5092991;28;20647;-62
2023/05/15 00:40:05;;;;;;;4.75;4.35;;;20.10;59.90;;;;;;5092297;28;20264;-62
2023/05/15 00:42:31;;;;;;;4.97;4.57;;;20.20;60.00;;;;;;5093124;28;20173;-61
2023/05/15 00:44:56;;;;;;;4.53;4.22;;;20.20;59.90;;;;;;5092886;28;20621;-61
2023/05/15 00:47:22;;;;;;;4.80;4.40;;;20.20;59.90;;;;;;5091826;28;20655;-62
2023/05/15 00:49:48;;;;;;;4.88;4.47;;;20.20;59.90;;;;;;5091684;28;20620;-62
2023/05/15 00:52:14;;;;;;;4.55;4.25;;;20.10;59.90;;;;;;5092471;28;20617;-62
2023/05/15 00:54:39;;;;;;;4.97;4.57;;;20.20;59.90;;;;;;5092207;28;20308;-62
2023/05/15 00:57:05;;;;;;;4.55;4.25;;;20.10;59.90;;;;;;5092503;28;20174;-62
2023/05/15 00:59:31;;;;;;;5.05;4.65;;;20.10;59.90;;;;;;5090953;28;20173;-62
2023/05/15 01:01:56;;;;;;;5.00;4.63;;;20.10;60.00;;;;;;5091771;28;20176;-62
2023/05/15 01:04:22;;;;;;;4.68;4.30;;;20.10;60.00;;;;;;5092669;28;20194;-62
2023/05/15 01:06:52;;;;;;;4.65;4.00;;;20.10;60.00;;;;;;5092217;28;20193;-62
2023/05/15 01:09:18;;;;;;;4.13;3.83;;;20.10;59.90;;;;;;5092448;28;20246;-61
2023/05/15 01:11:43;;;;;;;4.90;4.50;;;20.10;59.90;;;;;;5091038;28;20568;-62
2023/05/15 01:14:09;;;;;;;4.80;4.30;;;20.10;59.90;;;;;;5089910;28;20577;-62
2023/05/15 01:16:34;;;;;;;5.07;4.60;;;20.10;60.70;;;;;;5092444;28;20699;-61
2023/05/15 01:19:01;;;;;;;4.30;4.00;;;20.10;59.90;;;;;;5092037;28;20235;-62
2023/05/15 01:22:05;;;;;;;4.93;4.60;;;20.10;59.90;;;;;;5091754;28;20269;-61
2023/05/15 01:24:39;;;;;;;4.85;4.45;;;20.10;59.90;;;;;;5092805;28;20182;-61
2023/05/15 01:27:22;;;;;;;4.68;4.38;;;20.10;59.90;;;;;;5092271;28;20181;-62
2023/05/15 01:30:14;;;;;;;4.40;4.10;;;20.10;59.90;;;;;;5091981;28;20180;-62
2023/05/15 01:32:46;;;;;;;5.30;4.70;;;20.10;59.90;;;;;;5086697;28;20182;-62
2023/05/15 01:35:18;;;;;;;4.28;3.97;;;20.10;59.90;;;;;;5090102;28;20232;-62
2023/05/15 01:37:44;;;;;;;4.78;4.38;;;20.00;60.60;;;;;;5092359;28;20226;-62
2023/05/15 01:40:11;;;;;;;4.55;4.25;;;20.00;59.80;;;;;;5091152;28;20200;-62
2023/05/15 01:42:38;;;;;;;4.38;4.07;;;20.00;59.80;;;;;;5091976;28;20641;-62
2023/05/15 01:45:04;;;;;;;4.93;4.60;;;20.00;59.80;;;;;;5092699;28;20523;-62
2023/05/15 01:47:45;;;;;;;4.85;4.45;;;20.00;59.80;;;;;;5075779;28;20224;-62
2023/05/15 01:50:14;;;;;;;4.88;4.45;;;20.00;59.80;;;;;;5073298;28;20662;-62
2023/05/15 01:52:42;;;;;;;4.93;4.53;;;20.00;59.80;;;;;;5058018;28;20660;-62
2023/05/15 01:55:07;;;;;;;4.57;4.28;;;20.00;59.80;;;;;;5057846;28;20218;-62
2023/05/15 01:57:33;;;;;;;4.57;4.28;;;20.00;59.80;;;;;;5073813;28;20591;-62
2023/05/15 01:59:59;;;;;;;4.80;4.47;;;20.00;59.80;;;;;;5074540;28;20178;-62
2023/05/15 02:02:25;;;;;;;4.53;4.20;;;20.10;59.80;;;;;;5057526;28;20641;-62
2023/05/15 02:04:51;;;;;;;4.60;4.30;;;20.00;59.80;;;;;;5073412;28;20265;-62
2023/05/15 02:07:16;;;;;;;5.35;4.90;;;20.00;59.80;;;;;;5057224;28;20600;-62
2023/05/15 02:09:42;;;;;;;4.68;4.38;;;20.00;59.80;;;;;;5074079;28;20213;-62
2023/05/15 02:12:08;;;;;;;4.65;4.25;;;20.00;59.80;;;;;;5073687;28;20240;-62
2023/05/15 02:14:33;;;;;;;4.88;4.47;;;20.00;59.80;;;;;;5075453;28;20207;-61
2023/05/15 02:16:59;;;;;;;4.20;3.90;;;19.90;59.70;;;;;;5056737;28;20706;-62
2023/05/15 02:19:25;;;;;;;4.82;4.53;;;19.90;59.70;;;;;;5073636;28;20233;-61
2023/05/15 02:21:50;;;;;;;4.95;4.45;;;19.90;59.70;;;;;;5075139;28;20220;-61
2023/05/15 02:24:16;;;;;;;4.43;4.13;;;19.90;59.70;;;;;;5074014;28;20254;-62
2023/05/15 02:26:54;;;;;;;4.72;4.32;;;19.90;59.70;;;;;;5075040;28;20694;-61
2023/05/15 02:29:29;;;;;;;5.05;4.65;;;19.90;59.70;;;;;;5073616;28;20179;-62
2023/05/15 02:32:05;;;;;;;4.97;4.57;;;19.90;59.70;;;;;;5072982;28;20181;-62
2023/05/15 02:34:37;;;;;;;4.38;4.07;;;19.90;59.70;;;;;;5074877;28;20230;-62
2023/05/15 02:37:02;;;;;;;4.60;4.20;;;19.90;59.70;;;;;;5073765;28;20189;-62
2023/05/15 02:39:28;;;;;;;5.00;4.60;;;19.90;59.70;;;;;;5072665;28;20257;-62
2023/05/15 02:41:53;;;;;;;4.35;4.05;;;19.90;59.70;;;;;;5073737;28;20536;-62
2023/05/15 02:44:19;;;;;;;4.90;4.60;;;19.90;59.70;;;;;;5074343;28;20173;-62
2023/05/15 02:46:46;;;;;;;4.55;4.25;;;19.90;59.70;;;;;;5072949;28;20181;-61
2023/05/15 02:49:11;;;;;;;4.68;4.38;;;19.90;59.70;;;;;;5074549;28;20228;-62
2023/05/15 02:51:37;;;;;;;4.72;4.43;;;19.90;59.70;;;;;;5056945;28;20170;-62
2023/05/15 02:54:02;;;;;;;4.32;4.03;;;19.90;59.70;;;;;;5073896;28;20178;-62
2023/05/15 02:56:28;;;;;;;4.93;4.53;;;19.90;59.70;;;;;;5056169;28;20217;-62
2023/05/15 02:58:53;;;;;;;4.65;4.35;;;19.90;59.70;;;;;;5074409;28;20190;-62
2023/05/15 03:01:19;;;;;;;4.55;4.15;;;19.90;59.70;;;;;;5073603;28;20171;-62
2023/05/15 03:03:45;;;;;;;4.65;4.25;;;19.90;59.70;;;;;;5074768;28;20171;-62
2023/05/15 03:06:10;;;;;;;4.20;3.90;;;19.90;59.70;;;;;;5073454;28;20178;-62
2023/05/15 03:08:36;;;;;;;4.70;4.30;;;19.90;59.60;;;;;;5074189;28;20648;-62
2023/05/15 03:11:01;;;;;;;4.38;4.07;;;19.80;59.60;;;;;;5074136;28;20192;-62
2023/05/15 03:13:27;;;;;;;5.32;4.93;;;19.80;59.60;;;;;;5073024;28;20175;-62
2023/05/15 03:15:52;;;;;;;4.63;4.32;;;19.90;59.70;;;;;;5073973;28;20214;-61
2023/05/15 03:18:18;;;;;;;4.53;4.20;;;19.90;59.70;;;;;;5073676;28;20185;-62
2023/05/15 03:20:44;;;;;;;4.88;4.47;;;19.80;59.60;;;;;;5073438;28;20174;-61
2023/05/15 03:23:09;;;;;;;4.60;4.30;;;19.80;59.60;;;;;;5073845;28;20191;-61
2023/05/15 03:25:35;;;;;;;4.72;4.40;;;19.90;59.60;;;;;;5073868;28;20180;-61
2023/05/15 03:28:00;;;;;;;5.05;4.65;;;19.80;59.60;;;;;;5073174;28;20212;-61
2023/05/15 03:30:26;;;;;;;4.35;4.07;;;19.80;59.60;;;;;;5073554;28;20265;-62
2023/05/15 03:32:52;;;;;;;4.43;4.13;;;19.80;59.60;;;;;;5073732;28;20167;-63
2023/05/15 03:35:17;;;;;;;4.72;4.43;;;19.80;59.60;;;;;;5072643;28;20234;-62
2023/05/15 03:37:43;;;;;;;4.22;3.92;;;19.80;59.60;;;;;;5073686;28;20166;-62
2023/05/15 03:40:09;;;;;;;4.97;4.63;;;19.80;59.60;;;;;;5073343;28;20185;-61
2023/05/15 03:42:34;;;;;;;4.82;4.45;;;19.70;59.50;;;;;;5072793;28;20177;-61
2023/05/15 03:45:00;;;;;;;4.65;4.35;;;19.80;59.60;;;;;;5073693;28;20183;-62
2023/05/15 03:47:25;;;;;;;4.43;4.13;;;19.80;59.60;;;;;;5073291;28;20175;-62
2023/05/15 03:49:51;;;;;;;4.55;4.20;;;19.80;59.60;;;;;;5072791;28;20175;-62
2023/05/15 03:52:16;;;;;;;4.50;4.20;;;19.80;59.60;;;;;;5073170;28;20173;-62
2023/05/15 03:54:42;;;;;;;4.75;4.38;;;19.80;59.60;;;;;;5072156;28;20559;-62
2023/05/15 03:57:07;;;;;;;4.55;4.25;;;19.80;59.60;;;;;;5072141;28;20225;-62
2023/05/15 03:59:33;;;;;;;6.75;5.13;;;19.70;59.50;;;;;;5073328;28;20183;-62
2023/05/15 04:01:59;;;;;;;4.50;4.20;;;19.80;59.60;;;;;;5073368;28;20174;-62
2023/05/15 04:04:24;;;;;;;5.00;4.70;;;19.70;59.50;;;;;;5072086;28;20258;-62
2023/05/15 04:06:50;;;;;;;4.60;4.30;;;19.80;59.60;;;;;;5073065;28;20178;-62
2023/05/15 04:09:16;;;;;;;4.47;4.18;;;19.70;59.50;;;;;;5072622;28;20170;-62
2023/05/15 04:11:41;;;;;;;4.63;4.32;;;19.70;59.50;;;;;;5072663;28;20178;-62
2023/05/15 04:14:07;;;;;;;4.53;4.13;;;19.70;59.60;;;;;;5072681;28;20170;-61
2023/05/15 04:16:32;;;;;;;5.03;4.63;;;19.70;59.50;;;;;;5072729;28;20221;-62
2023/05/15 04:18:58;;;;;;;4.85;4.45;;;19.70;59.50;;;;;;5073115;28;20166;-61
2023/05/15 04:21:23;;;;;;;5.10;4.70;;;19.70;59.50;;;;;;5072863;28;20198;-61
2023/05/15 04:23:49;;;;;;;4.82;4.53;;;19.70;59.50;;;;;;5072257;28;20534;-61
2023/05/15 04:26:15;;;;;;;4.50;4.18;;;19.80;59.60;;;;;;5072657;28;20660;-62
2023/05/15 04:28:40;;;;;;;4.65;4.30;;;19.70;60.30;;;;;;5072884;28;20189;-62
2023/05/15 04:31:06;;;;;;;4.75;4.45;;;19.80;59.60;;;;;;5071828;28;20673;-63
2023/05/15 04:33:31;;;;;;;4.82;4.43;;;19.80;59.60;;;;;;5072750;28;20281;-63
2023/05/15 04:35:57;;;;;;;5.00;4.60;;;19.80;59.60;;;;;;5072638;28;20316;-63
2023/05/15 04:38:22;;;;;;;5.28;4.78;;;19.80;59.60;;;;;;5070741;28;20167;-62
2023/05/15 04:40:48;;;;;;;4.50;4.13;;;19.80;59.60;;;;;;5072790;28;20175;-61
2023/05/15 04:43:14;;;;;;;4.43;4.13;;;19.80;59.50;;;;;;5072439;28;20204;-62
2023/05/15 04:45:39;;;;;;;4.53;4.22;;;19.80;59.50;;;;;;5072247;28;20186;-62
2023/05/15 04:48:05;;;;;;;5.22;4.82;;;19.80;59.50;;;;;;5071180;28;20640;-62
2023/05/15 04:50:30;;;;;;;4.60;4.30;;;19.80;59.50;;;;;;5072997;28;20193;-62
2023/05/15 04:52:56;;;;;;;5.35;4.85;;;19.80;59.50;;;;;;5072004;28;20181;-62
2023/05/15 04:55:22;;;;;;;4.57;4.18;;;19.80;59.50;;;;;;5072284;28;20202;-62
2023/05/15 04:57:48;;;;;;;4.93;4.63;;;19.80;59.50;;;;;;5072520;28;20178;-62
2023/05/15 05:00:14;;;;;;;4.88;4.50;;;19.80;59.50;;;;;;5071522;28;20178;-62
2023/05/15 05:02:40;;;;;;;4.70;4.40;;;19.80;59.40;;;;;;5072537;28;20186;-62
2023/05/15 05:05:06;;;;;;;5.80;5.40;;;19.80;59.40;;;;;;5072505;28;20179;-62
2023/05/15 05:07:32;;;;;;;4.78;4.45;;;19.80;59.50;;;;;;5072067;28;20174;-62
2023/05/15 05:09:58;;;;;;;5.13;4.80;;;19.80;59.50;;;;;;5072523;28;20183;-62
2023/05/15 05:12:23;;;;;;;4.82;4.43;;;19.80;59.60;;;;;;5072353;28;20228;-63
2023/05/15 05:14:49;;;;;;;5.22;4.85;;;19.70;59.50;;;;;;5071653;28;20648;-61
2023/05/15 05:17:14;;;;;;;4.63;4.32;;;19.80;59.60;;;;;;5073261;28;20167;-62
2023/05/15 05:19:40;;;;;;;4.95;4.55;;;19.80;59.60;;;;;;5075698;28;20175;-62
2023/05/15 05:22:06;;;;;;;5.18;4.78;;;19.70;59.50;;;;;;5075847;28;20527;-61
2023/05/15 05:24:32;;;;;;;4.70;4.40;;;19.70;59.50;;;;;;5076313;28;20178;-61
2023/05/15 05:26:57;;;;;;;4.50;4.20;;;19.70;59.50;;;;;;5075315;28;20964;-61
2023/05/15 05:29:23;;;;;;;4.72;4.32;;;19.70;59.60;;;;;;5075943;28;20663;-62
2023/05/15 05:31:49;;;;;;;4.93;4.60;;;19.70;59.60;;;;;;5076299;28;20717;-63
2023/05/15 05:34:14;;;;;;;4.63;4.32;;;19.70;59.60;;;;;;5074932;28;20660;-63
2023/05/15 05:36:40;;;;;;;4.07;3.88;;;19.70;59.60;;;;;;5075968;28;20816;-62
2023/05/15 05:39:05;;;;;;;4.75;4.38;;;19.70;59.60;;;;;;5075657;28;20174;-62
2023/05/15 05:41:31;;;;;;;4.60;4.30;;;19.80;59.70;;;;;;5075272;28;20527;-62
2023/05/15 05:43:57;;;;;;;4.50;4.20;;;19.70;59.60;;;;;;5075980;28;20671;-62
2023/05/15 05:46:22;;;;;;;4.55;4.22;;;19.70;59.60;;;;;;5075753;28;20174;-62
2023/05/15 05:48:48;;;;;;;4.40;4.10;;;19.70;59.60;;;;;;5075105;28;20536;-62
2023/05/15 05:51:14;;;;;;;4.60;4.30;;;19.70;59.60;;;;;;5075454;28;20581;-62
2023/05/15 05:53:39;;;;;;;4.93;4.60;;;19.80;59.70;;;;;;5075672;28;20182;-62
2023/05/15 05:56:05;;;;;;;4.95;4.55;;;19.80;59.60;;;;;;5074527;28;20250;-62
2023/05/15 05:58:30;;;;;;;3.83;3.53;;;19.90;59.60;;;;;;5075395;28;20178;-62
2023/05/15 06:00:56;;;;;;;5.00;4.60;;;19.80;59.50;;;;;;5075738;28;20178;-62
2023/05/15 06:03:23;;;;;;;5.07;4.35;;;19.80;59.60;;;;;;5074639;28;20552;-63
2023/05/15 06:05:48;;;;;;;4.55;4.25;;;19.80;59.60;;;;;;5075595;28;20179;-62
2023/05/15 06:08:14;;;;;;;4.63;4.32;;;19.90;59.60;;;;;;5075161;28;20175;-62
2023/05/15 06:10:41;;;;;;;4.63;4.32;;;19.90;59.60;;;;;;5074611;28;20610;-62
2023/05/15 06:13:06;;;;;;;4.38;4.07;;;19.90;59.60;;;;;;5075183;28;20175;-62
2023/05/15 06:15:32;;;;;;;4.65;4.32;;;19.90;59.60;;;;;;5075346;28;20305;-62
2023/05/15 06:17:57;;;;;;;4.43;4.10;;;19.90;59.60;;;;;;5074500;28;20189;-62
2023/05/15 06:20:23;;;;;;;4.32;4.03;;;19.90;59.60;;;;;;5074853;28;20171;-62
2023/05/15 06:22:49;;;;;;;4.43;4.10;;;19.90;59.70;;;;;;5074999;28;20175;-62
2023/05/15 06:25:14;;;;;;;4.30;4.10;;;19.90;59.70;;;;;;5073948;28;20319;-61
2023/05/15 06:27:41;;;;;;;4.63;4.32;;;19.90;59.70;;;;;;5074876;28;20311;-62
2023/05/15 06:30:07;;;;;;;4.40;4.15;;;19.90;59.70;;;;;;5073925;28;20515;-62
2023/05/15 06:32:33;;;;;;;4.97;4.45;;;19.90;59.70;;;;;;5074923;28;20255;-63
2023/05/15 06:34:59;;;;;;;4.60;4.30;;;19.90;59.70;;;;;;5074811;28;20234;-62
2023/05/15 06:37:24;;;;;;;4.68;4.38;;;19.90;59.70;;;;;;5074062;28;20183;-62
2023/05/15 06:39:50;;;;;;;4.55;4.25;;;19.90;59.70;;;;;;5074761;28;20621;-61
2023/05/15 06:42:15;;;;;;;4.07;3.88;;;19.90;59.60;;;;;;5074551;28;20171;-61
2023/05/15 06:44:41;;;;;;;4.35;4.07;;;20.00;59.60;;;;;;5073835;28;20610;-62
2023/05/15 06:47:06;;;;;;;4.15;3.80;;;20.00;59.60;;;;;;5074437;28;20261;-62
2023/05/15 06:49:32;;;;;;;4.35;4.05;;;20.00;59.70;;;;;;5074473;28;20266;-62
2023/05/15 06:51:57;;;;;;;4.53;4.13;;;20.00;59.60;;;;;;5074185;28;20209;-62
2023/05/15 06:54:23;;;;;;;4.28;3.95;;;20.00;59.60;;;;;;5072875;28;20249;-62
2023/05/15 06:56:49;;;;;;;4.72;4.40;;;20.00;59.40;;;;;;5074826;28;20597;-61
2023/05/15 06:59:14;;;;;;;4.85;4.32;;;20.10;59.50;;;;;;5073560;28;20256;-61
2023/05/15 07:01:40;;;;;;;4.70;4.30;;;20.10;59.40;;;;;;5074523;28;20198;-61
2023/05/15 07:04:05;;;;;;;4.88;4.47;;;20.10;59.40;;;;;;5074111;28;20174;-61
2023/05/15 07:06:31;;;;;;;4.60;4.20;;;20.00;59.40;;;;;;5073649;28;20179;-61
2023/05/15 07:08:59;;;;;;;4.63;4.20;;;20.10;59.50;;;;;;5074170;28;20536;-61
2023/05/15 07:11:25;;;;;;;4.78;4.35;;;20.10;59.50;;;;;;5074119;28;20227;-61
2023/05/15 07:13:51;;;;;;;4.78;4.38;;;20.10;59.50;;;;;;5073305;28;20182;-61
2023/05/15 07:16:17;;;;;;;4.57;4.18;;;20.10;59.40;;;;;;5073775;28;20210;-60
2023/05/15 07:18:43;;;;;;;4.72;4.32;;;20.20;59.50;;;;;;5074291;28;20319;-60
2023/05/15 07:21:08;;;;;;;4.88;4.47;;;20.10;59.40;;;;;;5073032;28;20178;-60
2023/05/15 07:23:34;;;;;;;4.32;3.95;;;20.10;59.40;;;;;;5073880;28;20174;-60
2023/05/15 07:25:59;;;;;;;4.85;4.35;;;20.10;59.50;;;;;;5074114;28;20182;-60
2023/05/15 07:28:25;;;;;;;4.93;4.35;;;20.10;59.50;;;;;;5072929;28;20178;-61
2023/05/15 07:30:51;;;;;;;4.63;4.30;;;20.10;59.40;;;;;;5073880;28;20181;-62
2023/05/15 07:33:17;;;;;;;5.32;4.13;;;20.10;59.30;;;;;;5071638;28;20178;-61
2023/05/15 07:35:42;;;;;;;4.68;3.83;;;20.10;59.30;;;;;;5073495;28;20283;-61
2023/05/15 07:38:08;;;;;;;4.28;3.97;;;20.20;59.30;;;;;;5073297;28;20672;-61
2023/05/15 07:40:33;;;;;;;4.95;4.55;;;20.20;59.20;;;;;;5072140;28;20663;-61
2023/05/15 07:42:59;;;;;;;4.70;4.30;;;20.20;59.10;;;;;;5073582;28;20177;-60
2023/05/15 07:45:24;;;;;;;4.25;3.95;;;20.20;59.10;;;;;;5073450;28;20189;-61
2023/05/15 07:47:50;;;;;;;4.50;4.20;;;20.20;59.10;;;;;;5072695;28;20625;-60
2023/05/15 07:50:16;;;;;;;5.00;4.50;;;20.20;59.10;;;;;;5073251;28;20229;-60
2023/05/15 07:52:42;;;;;;;4.63;4.13;;;20.20;59.20;;;;;;5073327;28;20607;-61
2023/05/15 07:55:08;;;;;;;4.70;4.22;;;20.20;59.20;;;;;;5072494;28;20740;-61
2023/05/15 07:57:34;;;;;;;4.85;4.35;;;20.20;59.20;;;;;;5073473;28;20185;-61
2023/05/15 08:00:01;;;;;;;4.65;4.25;;;20.20;59.10;;;;;;5073416;28;20178;-61
2023/05/15 08:02:26;;;;;;;4.35;4.05;;;20.30;59.00;;;;;;5072367;28;20170;-61
2023/05/15 08:04:52;;;;;;;4.28;3.92;;;20.30;58.90;;;;;;5073308;28;20218;-61
2023/05/15 08:07:17;;;;;;;4.70;4.40;;;20.30;58.80;;;;;;5072836;28;20170;-60
2023/05/15 08:09:43;;;;;;;5.22;4.38;;;20.30;58.70;;;;;;5072679;28;20508;-61
2023/05/15 08:12:19;;;;;;;4.30;3.90;;;20.30;58.60;;;;;;5073031;28;20664;-61
2023/05/15 08:14:49;;;;;;;4.13;3.83;;;20.30;58.60;;;;;;5073345;28;20205;-60
2023/05/15 08:17:15;;;;;;;5.03;4.47;;;20.40;58.60;;;;;;5072125;28;20236;-60
2023/05/15 08:19:41;;;;;;;4.65;4.25;;;20.40;58.60;;;;;;5073211;28;20249;-60
2023/05/15 08:22:06;;;;;;;4.45;4.15;;;20.40;58.50;;;;;;5072949;28;20633;-60
2023/05/15 08:24:32;;;;;;;4.30;4.00;;;20.40;58.50;;;;;;5072310;28;20171;-60
2023/05/15 08:26:57;;;;;;;4.10;3.70;;;20.40;58.50;;;;;;5072983;28;20640;-60
2023/05/15 08:29:23;;;;;;;4.80;4.43;;;20.40;58.50;;;;;;5072728;28;20202;-61
2023/05/15 08:31:49;;;;;;;4.15;3.85;;;20.40;58.40;;;;;;5072336;28;20272;-61
2023/05/15 08:34:14;;;;;;;4.40;4.10;;;20.50;58.40;;;;;;5072390;28;20260;-62
2023/05/15 08:36:40;;;;;;;4.43;4.13;;;20.40;58.40;;;;;;5072336;28;20305;-61
2023/05/15 08:39:06;;;;;;;4.40;4.10;;;20.50;58.30;;;;;;5072761;28;20269;-61
2023/05/15 08:41:32;;;;;;;5.00;4.60;;;20.50;58.30;;;;;;5072981;28;20228;-61
2023/05/15 08:43:58;;;;;;;4.60;4.20;;;20.60;58.30;;;;;;5072278;28;20591;-60
2023/05/15 08:46:24;;;;;;;4.45;4.15;;;20.50;58.30;;;;;;5071277;28;20637;-60
2023/05/15 08:48:49;;;;;;;4.40;4.07;;;20.60;58.40;;;;;;5071627;28;20174;-61
2023/05/15 08:51:15;;;;;;;4.55;4.20;;;20.60;58.30;;;;;;5071797;28;20177;-60
2023/05/15 08:53:40;;;;;;;3.88;3.67;;;20.60;58.30;;;;;;5077106;28;20174;-61
2023/05/15 08:56:06;;;;;;;4.72;4.30;;;20.60;58.20;;;;;;5075279;28;20582;-60
2023/05/15 08:58:31;;;;;;;5.75;4.45;;;20.60;58.20;;;;;;5076042;28;20175;-61
2023/05/15 09:00:57;;;;;;;4.43;4.03;;;20.60;58.10;;;;;;5075588;28;20185;-61
2023/05/15 09:03:23;;;;;;;4.25;3.95;;;20.60;58.10;;;;;;5058397;28;20178;-61
2023/05/15 09:05:48;;;;;;;4.68;4.28;;;20.70;58.20;;;;;;5075869;28;20311;-61
2023/05/15 09:08:14;;;;;;;4.20;3.90;;;20.70;58.20;;;;;;5075323;28;20622;-61
2023/05/15 09:10:39;;;;;;;4.03;3.72;;;20.70;58.10;;;;;;5058725;28;20547;-60
2023/05/15 09:13:06;;;;;;;4.38;3.97;;;20.70;58.10;;;;;;5074217;28;20167;-60
2023/05/15 09:15:31;;;;;;;4.18;3.78;;;20.70;58.20;;;;;;5075283;28;20210;-60
2023/05/15 09:17:57;;;;;;;4.25;3.72;;;20.70;58.10;;;;;;5076537;28;20186;-60
2023/05/15 09:20:30;;;;;;;4.25;3.95;;;20.80;58.20;;;;;;5074101;28;20182;-60
2023/05/15 09:22:56;;;;;;;4.47;4.18;;;20.80;58.10;;;;;;5076463;28;20182;-60
2023/05/15 09:25:41;;;;;;;3.88;3.47;;;20.80;58.10;;;;;;5075994;28;20202;-60
2023/05/15 09:28:08;;;;;;;4.25;3.90;;;20.90;58.10;;;;;;5075487;28;20174;-60
2023/05/15 09:30:37;;;;;;;4.32;4.00;;;20.90;58.70;;;;;;5076314;28;20586;-61
2023/05/15 09:33:03;;;;;;;4.20;3.90;;;20.90;58.00;;;;;;5075571;28;20174;-62
2023/05/15 09:35:32;;;;;;;4.20;3.90;;;20.90;58.00;;;;;;5075517;28;20226;-61
2023/05/15 09:37:59;;;;;;;4.47;4.18;;;20.90;58.00;;;;;;5076072;28;20182;-61
2023/05/15 09:40:27;;;;;;;4.60;4.20;;;20.90;58.10;;;;;;5075074;28;20171;-61
2023/05/15 09:42:52;;;;;;;4.30;3.90;;;20.80;58.00;;;;;;5074781;28;20256;-61
2023/05/15 09:45:18;;;;;;;4.22;3.88;;;20.90;58.10;;;;;;5075374;28;20265;-60
2023/05/15 09:47:44;;;;;;;4.28;3.97;;;20.90;58.00;;;;;;5075037;28;20179;-61
2023/05/15 09:50:10;;;;;;;4.35;4.03;;;20.90;58.00;;;;;;5075668;28;20236;-61
2023/05/15 09:52:35;;;;;;;4.60;4.13;;;20.90;58.00;;;;;;5058029;28;20198;-61
2023/05/15 09:55:01;;;;;;;3.97;3.58;;;20.90;58.00;;;;;;5074993;28;20213;-60
2023/05/15 09:57:26;;;;;;;4.25;3.95;;;20.90;58.00;;;;;;5074172;28;20228;-61
2023/05/15 09:59:52;;;;;;;4.30;3.88;;;21.00;58.00;;;;;;5075528;28;20220;-61
2023/05/15 10:02:26;;;;;;;3.85;3.65;;;20.90;58.00;;;;;;5074440;28;20588;-61
2023/05/15 10:04:55;;;;;;;5.35;3.92;;;21.00;58.10;;;;;;5075445;28;20254;-60
2023/05/15 10:07:32;;;;;;;3.72;3.42;;;21.00;58.20;;;;;;5075214;28;20212;-60
2023/05/15 10:09:58;;;;;;;4.05;3.75;;;21.00;58.30;;;;;;5072487;28;20174;-59
2023/05/15 10:12:24;;;;;;;4.05;3.75;;;21.00;58.30;;;;;;5074593;28;20177;-59
2023/05/15 10:14:50;;;;;;;4.63;3.80;;;21.00;58.40;;;;;;5074924;28;20679;-60
2023/05/15 10:17:16;;;;;;;4.25;3.85;;;21.00;58.40;;;;;;5072561;28;20704;-61
2023/05/15 10:19:42;;;;;;;4.30;4.00;;;21.00;58.30;;;;;;5075262;28;20645;-60
2023/05/15 10:22:07;;;;;;;7.78;4.13;;;21.10;58.60;;;;;;5074330;28;20198;-60
2023/05/15 10:24:33;;;;;;;4.70;3.92;;;21.10;58.70;;;;;;5073917;28;20182;-61
2023/05/15 10:26:58;;;;;;;7.30;4.03;;;21.00;58.60;;;;;;5073840;28;20182;-61
2023/05/15 10:29:25;;;;;;;4.82;4.43;;;21.00;59.10;;;;;;5072880;28;20170;-61
2023/05/15 10:31:51;;;;;;;5.53;5.03;;;20.90;58.50;;;;;;5073715;28;20235;-62
2023/05/15 10:34:16;;;;;;;5.40;5.00;;;20.90;58.40;;;;;;5056689;28;20234;-62
2023/05/15 10:36:42;;;;;;;6.10;4.68;;;20.90;58.20;;;;;;5056260;28;20232;-62
2023/05/15 10:39:07;;;;;;;4.88;4.47;;;21.00;57.70;;;;;;5073235;28;20537;-62
2023/05/15 10:41:35;;;;;;;5.15;4.65;;;21.10;57.70;;;;;;5074808;28;20181;-62
2023/05/15 10:44:01;;;;;;;7.55;4.70;;;21.10;57.50;;;;;;5074362;28;20197;-64
2023/05/15 10:46:26;;;;;;;5.28;4.75;;;21.10;57.50;;;;;;5074407;28;20629;-63
2023/05/15 10:48:52;;;;;;;5.20;4.40;;;21.10;57.60;;;;;;5056836;28;20178;-63
2023/05/15 10:51:23;;;;;;;5.70;4.85;;;21.10;57.60;;;;;;5073610;28;20170;-63
2023/05/15 10:53:48;;;;;;;6.60;4.70;;;21.10;57.50;;;;;;5074514;28;20707;-63
2023/05/15 10:56:15;;;;;;;5.10;4.50;;;21.10;57.60;;;;;;5074381;28;20361;-63
2023/05/15 10:58:48;;;;;;;5.85;4.40;;;21.10;57.60;;;;;;5073970;28;20249;-63
2023/05/15 11:01:30;;;;;;;4.57;4.13;;;21.20;57.70;;;;;;5073665;28;20280;-64
2023/05/15 11:04:08;;;;;;;5.22;3.50;;;21.10;57.60;;;;;;5071216;28;20179;-63
2023/05/15 11:06:34;;;;;;;5.38;4.00;;;21.20;57.80;;;;;;5073403;28;20189;-63
2023/05/15 11:09:23;;;;;;;5.38;4.13;;;21.20;57.70;;;;;;5074471;28;20182;-64
2023/05/15 11:11:51;;;;;;;4.97;4.15;;;21.20;57.60;;;;;;5073347;28;20171;-62
2023/05/15 11:14:23;;;;;;;4.38;4.03;;;21.20;57.70;;;;;;5073103;28;20645;-61
2023/05/15 11:16:51;;;;;;;7.68;4.35;;;21.20;57.60;;;;;;5073726;28;20221;-62
2023/05/15 11:19:34;;;;;;;4.80;4.40;;;21.20;57.50;;;;;;5073206;28;20170;-62
2023/05/15 11:22:26;;;;;;;5.07;4.57;;;21.10;57.10;;;;;;5073753;28;20186;-61
2023/05/15 11:24:58;;;;;;;5.97;3.88;;;21.20;57.00;;;;;;5074016;28;20186;-61
2023/05/15 11:27:31;;;;;;;4.88;4.40;;;21.20;57.00;;;;;;5072819;28;20633;-61
2023/05/15 11:30:20;;;;;;;5.20;4.28;;;21.20;56.90;;;;;;5074154;28;20174;-62
2023/05/15 11:32:46;;;;;;;4.70;4.10;;;21.20;56.80;;;;;;5073260;28;20181;-63
2023/05/15 11:35:12;;;;;;;4.68;4.20;;;21.20;56.80;;;;;;5073056;28;20596;-63
2023/05/15 11:37:48;;;;;;;4.10;3.50;;;21.20;56.80;;;;;;5073607;28;20213;-62
2023/05/15 11:40:24;;;;;;;5.20;4.18;;;21.20;56.70;;;;;;5072880;28;20170;-62
2023/05/15 11:43:02;;;;;;;5.43;4.07;;;21.20;56.70;;;;;;5073721;28;20174;-61
2023/05/15 11:45:29;;;;;;;4.18;3.67;;;21.20;56.60;;;;;;5073327;28;20210;-61
2023/05/15 11:47:55;;;;;;;5.28;4.22;;;21.20;56.60;;;;;;5072799;28;20633;-61
2023/05/15 11:50:21;;;;;;;4.55;3.90;;;21.30;56.60;;;;;;5071960;28;20197;-61
2023/05/15 11:52:48;;;;;;;5.65;4.00;;;21.40;56.50;;;;;;5072438;28;20166;-62
2023/05/15 11:55:14;;;;;;;4.32;3.88;;;21.40;56.30;;;;;;5072532;28;20210;-61
2023/05/15 11:57:40;;;;;;;4.88;4.00;;;21.30;56.30;;;;;;5073375;28;20174;-61
2023/05/15 12:00:07;;;;;;;3.90;3.60;;;21.40;56.50;;;;;;5073047;28;20170;-62
2023/05/15 12:02:33;;;;;;;3.70;3.40;;;21.30;56.50;;;;;;5071330;28;20637;-62
2023/05/15 12:04:58;;;;;;;4.75;3.92;;;21.30;56.50;;;;;;5073134;28;20232;-62
2023/05/15 12:07:24;;;;;;;5.22;3.53;;;21.30;56.60;;;;;;5073173;28;20236;-61
2023/05/15 12:09:51;;;;;;;4.15;3.85;;;21.30;56.60;;;;;;5072617;28;20173;-61
2023/05/15 12:12:16;;;;;;;4.30;3.90;;;21.30;56.60;;;;;;5072795;28;20540;-61
2023/05/15 12:14:42;;;;;;;4.25;3.85;;;21.30;56.60;;;;;;5072231;28;20174;-62
2023/05/15 12:17:07;;;;;;;4.22;3.78;;;21.30;56.60;;;;;;5072857;28;20184;-61
2023/05/15 12:19:33;;;;;;;3.97;3.67;;;21.30;56.80;;;;;;5072942;28;20181;-62
2023/05/15 12:21:59;;;;;;;5.28;4.10;;;21.30;56.70;;;;;;5071376;28;20185;-61
2023/05/15 12:24:25;;;;;;;4.60;4.13;;;21.30;56.80;;;;;;5072785;28;20178;-60
2023/05/15 12:26:50;;;;;;;4.40;4.10;;;21.30;56.80;;;;;;5072938;28;20174;-61
2023/05/15 12:29:16;;;;;;;6.45;4.50;;;21.20;56.80;;;;;;5070940;28;20315;-62
2023/05/15 12:31:42;;;;;;;4.93;4.53;;;21.20;56.80;;;;;;5072881;28;20231;-63
2023/05/15 12:34:08;;;;;;;4.80;4.40;;;21.20;56.80;;;;;;5072415;28;20263;-62
2023/05/15 12:36:35;;;;;;;4.78;4.25;;;21.20;56.80;;;;;;5070881;28;20659;-63
2023/05/15 12:39:06;;;;;;;5.05;4.53;;;21.20;56.90;;;;;;5072911;28;20265;-62
2023/05/15 12:41:32;;;;;;;4.88;4.47;;;21.10;56.80;;;;;;5071822;28;20257;-62
2023/05/15 12:43:58;;;;;;;5.47;4.95;;;21.10;56.80;;;;;;5072158;28;20213;-62
2023/05/15 12:46:28;;;;;;;5.65;5.13;;;21.10;56.70;;;;;;5072640;28;20671;-61